createdAt,value
2023-05-10T00:00:16.767Z,73.70
2023-05-10T00:04:20.241Z,73.80
2023-05-10T00:08:23.705Z,73.90
2023-05-10T00:12:26.489Z,73.80
2023-05-10T00:16:29.554Z,73.70
2023-05-10T00:20:32.453Z,73.70
2023-05-10T00:24:35.308Z,73.70
2023-05-10T00:28:38.154Z,73.70
2023-05-10T00:32:41.270Z,73.70
2023-05-10T00:36:44.242Z,73.70
2023-05-10T00:40:47.174Z,73.70
2023-05-10T00:44:58.695Z,73.60
2023-05-10T00:49:02.014Z,73.60
2023-05-10T00:53:07.610Z,73.70
2023-05-10T00:57:10.578Z,73.70
2023-05-10T01:01:14.399Z,73.90
2023-05-10T01:05:17.266Z,74.20
2023-05-10T01:09:21.313Z,74.20
2023-05-10T01:13:34.798Z,74.20
2023-05-10T01:17:40.681Z,75.10
2023-05-10T01:21:58.640Z,75.30
2023-05-10T01:26:52.675Z,76.00
2023-05-10T01:31:44.744Z,76.70
2023-05-10T01:35:54.895Z,77.30
2023-05-10T01:40:27.635Z,77.70
2023-05-10T01:44:46.677Z,77.70
2023-05-10T01:48:55.476Z,78.40
2023-05-10T01:53:07.191Z,78.40
2023-05-10T01:57:14.817Z,78.40
2023-05-10T02:01:20.354Z,78.40
2023-05-10T02:05:24.414Z,78.60
2023-05-10T02:09:31.772Z,78.80
2023-05-10T02:13:37.574Z,79.00
2023-05-10T02:17:43.102Z,79.00
2023-05-10T02:21:47.570Z,79.10
2023-05-10T02:25:51.983Z,79.10
2023-05-10T02:29:58.881Z,79.10
2023-05-10T02:34:03.779Z,79.20
2023-05-10T02:38:08.577Z,79.30
2023-05-10T02:42:24.815Z,79.40
2023-05-10T02:46:27.677Z,79.40
2023-05-10T02:50:34.620Z,79.40
2023-05-10T02:54:51.215Z,79.50
2023-05-10T02:58:54.107Z,79.50
2023-05-10T03:02:57.509Z,79.50
2023-05-10T03:07:01.438Z,79.60
2023-05-10T03:11:22.024Z,79.70
2023-05-10T03:15:48.762Z,79.70
2023-05-10T03:19:58.980Z,79.90
2023-05-10T03:24:16.663Z,80.20
2023-05-10T03:28:23.103Z,80.20
2023-05-10T03:32:29.630Z,80.20
2023-05-10T03:36:34.113Z,80.00
2023-05-10T03:40:40.488Z,79.90
2023-05-10T03:44:44.253Z,79.70
2023-05-10T03:48:47.431Z,79.60
2023-05-10T03:52:51.583Z,79.40
2023-05-10T03:56:55.345Z,79.40
2023-05-10T04:00:59.147Z,79.40
2023-05-10T04:05:02.217Z,79.40
2023-05-10T04:09:05.524Z,79.30
2023-05-10T04:13:08.496Z,79.20
2023-05-10T04:17:12.480Z,79.10
2023-05-10T04:21:16.221Z,79.00
2023-05-10T04:25:19.297Z,79.00
2023-05-10T04:29:22.267Z,79.00
2023-05-10T04:33:25.205Z,79.00
2023-05-10T04:37:28.033Z,79.00
2023-05-10T04:41:32.582Z,79.00
2023-05-10T04:45:35.884Z,78.90
2023-05-10T04:49:38.953Z,78.70
2023-05-10T04:53:46.462Z,78.70
2023-05-10T04:57:56.168Z,78.50
2023-05-10T05:01:59.431Z,78.50
2023-05-10T05:06:22.007Z,78.50
2023-05-10T05:10:27.167Z,78.70
2023-05-10T05:14:36.192Z,78.70
2023-05-10T05:18:39.281Z,78.70
2023-05-10T05:28:50.047Z,78.60
2023-05-10T05:38:02.325Z,78.80
2023-05-10T05:42:26.271Z,78.60
2023-05-10T05:46:28.990Z,78.60
2023-05-10T05:50:32.054Z,78.50
2023-05-10T05:54:35.562Z,78.40
2023-05-10T05:58:50.028Z,78.40
2023-05-10T06:02:53.265Z,78.40
2023-05-10T06:06:56.536Z,78.30
2023-05-10T06:10:59.472Z,78.40
2023-05-10T06:15:02.424Z,78.60
2023-05-10T06:19:06.781Z,78.70
2023-05-10T06:23:10.246Z,78.80
2023-05-10T06:27:14.279Z,78.60
2023-05-10T06:31:17.357Z,78.50
2023-05-10T06:35:20.660Z,78.50
2023-05-10T06:39:25.876Z,78.40
2023-05-10T06:43:29.800Z,78.20
2023-05-10T06:47:32.779Z,78.20
2023-05-10T06:51:36.424Z,78.10
2023-05-10T06:55:40.868Z,78.10
2023-05-10T06:59:44.313Z,78.10
2023-05-10T07:03:47.321Z,78.10
2023-05-10T07:08:03.677Z,78.20
2023-05-10T07:12:21.550Z,78.20
2023-05-10T07:16:24.859Z,78.40
2023-05-10T07:20:35.510Z,78.60
2023-05-10T07:24:42.722Z,78.90
2023-05-10T07:28:46.487Z,79.00
2023-05-10T07:32:49.469Z,79.00
2023-05-10T07:36:53.098Z,78.90
2023-05-10T07:45:17.579Z,79.00
2023-05-10T07:49:25.972Z,78.90
2023-05-10T07:57:46.769Z,78.40
2023-05-10T08:06:39.644Z,78.20
2023-05-10T08:10:43.007Z,77.90
2023-05-10T08:14:46.339Z,78.00
2023-05-10T08:18:58.556Z,77.90
2023-05-10T08:27:19.986Z,77.80
2023-05-10T08:53:44.067Z,76.60
2023-05-10T09:02:24.489Z,77.00
2023-05-10T09:06:28.025Z,77.20
2023-05-10T09:10:33.412Z,77.30
2023-05-10T09:14:50.199Z,77.40
2023-05-10T09:36:38.738Z,77.40
2023-05-10T10:48:37.549Z,77.40
2023-05-10T10:57:48.826Z,77.50
2023-05-10T11:10:30.071Z,77.20
2023-05-10T11:14:36.245Z,77.50
2023-05-10T11:18:43.786Z,77.70
2023-05-10T11:27:36.544Z,77.90
2023-05-10T11:31:56.539Z,78.00
2023-05-10T11:36:00.918Z,78.10
2023-05-10T11:44:22.739Z,77.90
2023-05-10T11:48:25.692Z,77.80
2023-05-10T11:52:28.762Z,77.80
2023-05-10T11:56:34.195Z,77.80
2023-05-10T12:00:37.169Z,77.90
2023-05-10T12:04:40.904Z,77.80
2023-05-10T12:08:48.753Z,77.80
2023-05-10T12:12:53.874Z,77.80
2023-05-10T12:16:58.782Z,77.90
2023-05-10T12:21:05.363Z,77.80
2023-05-10T12:25:10.181Z,78.00
2023-05-10T12:29:20.116Z,78.20
2023-05-10T12:33:26.787Z,78.50
2023-05-10T12:37:29.654Z,78.40
2023-05-10T12:41:32.460Z,78.50
2023-05-10T12:45:36.569Z,78.60
2023-05-10T12:49:39.614Z,78.60
2023-05-10T12:53:46.149Z,78.60
2023-05-10T12:57:53.927Z,78.60
2023-05-10T13:01:57.628Z,78.50
2023-05-10T13:06:00.601Z,78.50
2023-05-10T13:10:03.500Z,78.70
2023-05-10T13:14:06.537Z,79.00
2023-05-10T13:18:10.422Z,78.90
2023-05-10T13:22:13.439Z,79.10
2023-05-10T13:26:16.432Z,79.20
2023-05-10T13:30:19.566Z,79.60
2023-05-10T13:34:22.648Z,79.40
2023-05-10T13:38:25.845Z,79.30
2023-05-10T13:42:29.762Z,79.30
2023-05-10T13:46:32.802Z,79.40
2023-05-10T13:50:35.745Z,79.80
2023-05-10T13:54:39.671Z,79.40
2023-05-10T13:58:44.718Z,79.30
2023-05-10T14:02:47.647Z,79.30
2023-05-10T14:06:50.604Z,79.30
2023-05-10T14:10:55.099Z,78.80
2023-05-10T14:19:17.001Z,78.50
2023-05-10T14:23:25.085Z,78.70
2023-05-10T14:31:45.404Z,78.80
2023-05-10T14:35:49.376Z,78.40
2023-05-10T14:39:52.609Z,78.50
2023-05-10T14:43:55.728Z,78.90
2023-05-10T14:47:59.153Z,79.30
2023-05-10T14:52:02.103Z,79.50
2023-05-10T14:56:05.244Z,80.10
2023-05-10T15:00:08.884Z,80.70
2023-05-10T15:04:14.530Z,81.00
2023-05-10T15:08:18.468Z,81.40
2023-05-10T15:12:21.560Z,81.70
2023-05-10T15:16:25.104Z,81.90
2023-05-10T15:20:28.165Z,81.80
2023-05-10T15:24:31.448Z,81.80
2023-05-10T15:28:35.036Z,81.70
2023-05-10T15:32:38.503Z,81.60
2023-05-10T15:36:42.781Z,81.40
2023-05-10T15:40:49.750Z,81.40
2023-05-10T15:44:52.686Z,81.40
2023-05-10T15:48:55.978Z,81.20
2023-05-10T15:52:59.074Z,81.20
2023-05-10T15:57:02.286Z,81.00
2023-05-10T16:01:08.552Z,80.90
2023-05-10T16:05:17.141Z,80.90
2023-05-10T16:09:23.207Z,81.00
2023-05-10T16:17:46.700Z,81.20
2023-05-10T16:22:02.614Z,81.20
2023-05-10T16:26:06.493Z,81.20
2023-05-10T16:30:14.989Z,81.20
2023-05-10T16:34:17.961Z,81.10
2023-05-10T16:38:21.968Z,81.00
2023-05-10T16:42:25.370Z,80.80
2023-05-10T16:46:28.487Z,80.70
2023-05-10T16:50:34.176Z,80.50
2023-05-10T16:54:42.445Z,80.30
2023-05-10T16:58:47.605Z,80.30
2023-05-10T17:02:50.429Z,80.30
2023-05-10T17:06:54.740Z,80.30
2023-05-10T17:11:02.584Z,80.30
2023-05-10T17:15:06.699Z,80.20
2023-05-10T17:19:09.886Z,80.20
2023-05-10T17:23:13.004Z,80.20
2023-05-10T17:27:16.507Z,80.20
2023-05-10T17:31:19.737Z,80.20
2023-05-10T17:35:23.552Z,80.00
2023-05-10T17:39:26.556Z,79.50
2023-05-10T17:43:29.648Z,79.40
2023-05-10T17:47:32.852Z,79.60
2023-05-10T17:51:35.762Z,79.60
2023-05-10T17:55:42.217Z,79.70
2023-05-10T17:59:47.593Z,79.80
2023-05-10T18:03:52.798Z,80.00
2023-05-10T18:07:56.601Z,80.00
2023-05-10T18:11:59.744Z,79.80
2023-05-10T18:16:02.799Z,80.00
2023-05-10T18:20:06.778Z,80.00
2023-05-10T18:24:10.050Z,80.00
2023-05-10T18:28:13.055Z,80.00
2023-05-10T18:32:18.105Z,80.10
2023-05-10T18:40:40.249Z,80.30
2023-05-10T18:44:43.546Z,80.30
2023-05-10T18:48:46.956Z,80.30
2023-05-10T18:52:51.830Z,80.30
2023-05-10T18:56:54.630Z,80.30
2023-05-10T19:01:09.245Z,80.30
2023-05-10T19:05:15.777Z,80.40
2023-05-10T19:13:39.757Z,80.40
2023-05-10T19:22:04.284Z,80.60
2023-05-10T19:35:04.749Z,80.90
2023-05-10T19:39:11.843Z,81.20
2023-05-10T19:43:17.328Z,81.30
2023-05-10T19:47:24.217Z,81.40
2023-05-10T19:51:27.310Z,81.50
2023-05-10T19:55:32.454Z,81.50
2023-05-10T19:59:46.369Z,81.50
2023-05-10T20:03:49.521Z,81.60
2023-05-10T20:07:55.453Z,81.70
2023-05-10T20:12:01.799Z,81.70
2023-05-10T20:20:26.660Z,81.70
2023-05-10T20:24:32.229Z,81.80
2023-05-10T20:28:37.472Z,81.90
2023-05-10T20:32:42.696Z,81.90
2023-05-10T20:36:46.513Z,81.90
2023-05-10T20:40:50.901Z,81.80
2023-05-10T20:44:55.746Z,81.80
2023-05-10T20:49:02.532Z,81.60
2023-05-10T20:57:35.634Z,81.50
2023-05-10T21:01:39.048Z,81.50
2023-05-10T21:05:41.991Z,81.60
2023-05-10T21:09:53.846Z,81.60
2023-05-10T21:14:00.171Z,81.70
2023-05-10T21:18:03.642Z,81.90
2023-05-10T21:22:07.364Z,81.80
2023-05-10T21:26:12.070Z,81.80
2023-05-10T21:30:15.942Z,81.80
2023-05-10T21:34:21.549Z,81.70
2023-05-10T21:38:27.998Z,81.60
2023-05-10T21:46:52.416Z,81.40
2023-05-10T21:50:55.598Z,81.30
2023-05-10T21:55:04.314Z,81.20
2023-05-10T21:59:07.414Z,81.10
2023-05-10T22:03:10.604Z,81.10
2023-05-10T22:07:13.670Z,81.10
2023-05-10T22:11:16.723Z,81.00
2023-05-10T22:15:20.132Z,80.90
2023-05-10T22:19:24.932Z,80.70
2023-05-10T22:23:27.836Z,80.70
2023-05-10T22:27:32.058Z,80.60
2023-05-10T22:31:35.597Z,80.60
2023-05-10T22:35:39.330Z,80.60
2023-05-10T22:39:42.298Z,80.40
2023-05-10T22:43:45.663Z,80.40
2023-05-10T22:47:48.598Z,80.30
2023-05-10T22:51:59.125Z,80.20
2023-05-10T22:56:07.942Z,80.10
2023-05-10T23:00:11.378Z,80.10
2023-05-10T23:04:18.100Z,80.10
2023-05-10T23:08:20.888Z,80.00
2023-05-10T23:12:24.077Z,79.90
2023-05-10T23:16:27.071Z,80.10
2023-05-10T23:20:30.508Z,80.00
2023-05-10T23:24:33.793Z,79.80
2023-05-10T23:28:36.933Z,79.70
2023-05-10T23:32:41.189Z,79.60
2023-05-10T23:41:04.260Z,79.40
2023-05-10T23:45:09.084Z,79.30
2023-05-10T23:49:21.473Z,79.20
2023-05-10T23:53:26.123Z,79.20
2023-05-10T23:57:29.337Z,79.10
